sensor_id;sensor_type;location;lat;lon;timestamp;temperature;humidity
43991;DHT22;29654;50.784;20.604;2022-12-22T00:05:00;9.80;57.10
43991;DHT22;29654;50.784;20.604;2022-12-22T00:10:20;9.80;57.10
43991;DHT22;29654;50.784;20.604;2022-12-22T00:15:41;9.80;57.10
43991;DHT22;29654;50.784;20.604;2022-12-22T00:21:02;9.90;57.30
43991;DHT22;29654;50.784;20.604;2022-12-22T00:26:21;9.90;57.20
43991;DHT22;29654;50.784;20.604;2022-12-22T00:31:44;9.90;57.30
43991;DHT22;29654;50.784;20.604;2022-12-22T00:37:04;9.90;57.20
43991;DHT22;29654;50.784;20.604;2022-12-22T00:42:26;9.90;57.20
43991;DHT22;29654;50.784;20.604;2022-12-22T00:47:48;9.90;57.20
43991;DHT22;29654;50.784;20.604;2022-12-22T00:53:08;9.90;57.30
43991;DHT22;29654;50.784;20.604;2022-12-22T00:58:28;9.90;57.40
43991;DHT22;29654;50.784;20.604;2022-12-22T01:03:50;9.90;57.30
43991;DHT22;29654;50.784;20.604;2022-12-22T01:09:10;9.90;57.30
43991;DHT22;29654;50.784;20.604;2022-12-22T01:14:31;9.90;57.20
43991;DHT22;29654;50.784;20.604;2022-12-22T01:19:52;9.90;57.30
43991;DHT22;29654;50.784;20.604;2022-12-22T01:25:14;10.00;57.30
43991;DHT22;29654;50.784;20.604;2022-12-22T01:30:35;10.00;57.20
43991;DHT22;29654;50.784;20.604;2022-12-22T01:35:56;9.90;57.10
43991;DHT22;29654;50.784;20.604;2022-12-22T01:41:18;9.90;57.10
43991;DHT22;29654;50.784;20.604;2022-12-22T01:46:41;9.90;57.30
43991;DHT22;29654;50.784;20.604;2022-12-22T01:52:04;9.90;57.30
43991;DHT22;29654;50.784;20.604;2022-12-22T01:57:25;9.90;57.40
43991;DHT22;29654;50.784;20.604;2022-12-22T02:02:46;9.90;57.40
43991;DHT22;29654;50.784;20.604;2022-12-22T02:08:15;9.90;57.40
43991;DHT22;29654;50.784;20.604;2022-12-22T02:13:44;9.90;57.50
43991;DHT22;29654;50.784;20.604;2022-12-22T02:19:15;9.90;57.40
43991;DHT22;29654;50.784;20.604;2022-12-22T02:24:48;9.90;57.40
43991;DHT22;29654;50.784;20.604;2022-12-22T02:30:11;9.90;57.40
43991;DHT22;29654;50.784;20.604;2022-12-22T02:35:38;9.90;57.40
43991;DHT22;29654;50.784;20.604;2022-12-22T02:41:10;10.00;57.50
43991;DHT22;29654;50.784;20.604;2022-12-22T02:46:41;10.00;57.50
43991;DHT22;29654;50.784;20.604;2022-12-22T02:52:09;10.00;57.50
43991;DHT22;29654;50.784;20.604;2022-12-22T02:57:32;10.00;57.50
43991;DHT22;29654;50.784;20.604;2022-12-22T03:02:54;10.00;57.50
43991;DHT22;29654;50.784;20.604;2022-12-22T03:08:14;10.00;57.50
43991;DHT22;29654;50.784;20.604;2022-12-22T03:13:34;10.00;57.50
43991;DHT22;29654;50.784;20.604;2022-12-22T03:18:55;10.00;57.50
43991;DHT22;29654;50.784;20.604;2022-12-22T03:24:15;10.10;57.60
43991;DHT22;29654;50.784;20.604;2022-12-22T03:29:35;10.10;57.60
43991;DHT22;29654;50.784;20.604;2022-12-22T03:34:39;10.10;57.60
43991;DHT22;29654;50.784;20.604;2022-12-22T03:39:42;10.10;57.60
43991;DHT22;29654;50.784;20.604;2022-12-22T03:44:46;10.20;57.50
43991;DHT22;29654;50.784;20.604;2022-12-22T03:50:08;10.20;57.40
43991;DHT22;29654;50.784;20.604;2022-12-22T03:55:11;10.20;57.40
43991;DHT22;29654;50.784;20.604;2022-12-22T04:00:15;10.10;57.40
43991;DHT22;29654;50.784;20.604;2022-12-22T04:05:19;10.10;57.40
43991;DHT22;29654;50.784;20.604;2022-12-22T04:10:21;10.10;57.40
43991;DHT22;29654;50.784;20.604;2022-12-22T04:15:42;10.10;57.40
43991;DHT22;29654;50.784;20.604;2022-12-22T04:20:45;10.10;57.40
43991;DHT22;29654;50.784;20.604;2022-12-22T04:25:49;10.10;57.50
43991;DHT22;29654;50.784;20.604;2022-12-22T04:30:52;10.10;57.50
43991;DHT22;29654;50.784;20.604;2022-12-22T04:35:56;10.10;57.40
43991;DHT22;29654;50.784;20.604;2022-12-22T04:40:59;10.10;57.40
43991;DHT22;29654;50.784;20.604;2022-12-22T04:46:02;10.20;57.40
43991;DHT22;29654;50.784;20.604;2022-12-22T04:51:06;10.20;57.30
43991;DHT22;29654;50.784;20.604;2022-12-22T04:56:09;10.10;57.30
43991;DHT22;29654;50.784;20.604;2022-12-22T05:01:14;10.10;57.20
43991;DHT22;29654;50.784;20.604;2022-12-22T05:06:20;10.20;57.30
43991;DHT22;29654;50.784;20.604;2022-12-22T05:11:23;10.10;57.30
43991;DHT22;29654;50.784;20.604;2022-12-22T05:16:29;10.10;57.40
43991;DHT22;29654;50.784;20.604;2022-12-22T05:21:33;10.10;57.30
43991;DHT22;29654;50.784;20.604;2022-12-22T05:26:36;10.10;57.30
43991;DHT22;29654;50.784;20.604;2022-12-22T05:31:39;10.10;57.30
43991;DHT22;29654;50.784;20.604;2022-12-22T05:36:43;10.10;57.30
43991;DHT22;29654;50.784;20.604;2022-12-22T05:41:47;10.10;57.40
43991;DHT22;29654;50.784;20.604;2022-12-22T05:46:50;10.10;57.30
43991;DHT22;29654;50.784;20.604;2022-12-22T05:51:55;10.00;57.40
43991;DHT22;29654;50.784;20.604;2022-12-22T05:56:58;10.00;57.40
43991;DHT22;29654;50.784;20.604;2022-12-22T06:02:01;10.00;57.40
43991;DHT22;29654;50.784;20.604;2022-12-22T06:07:05;10.00;57.60
43991;DHT22;29654;50.784;20.604;2022-12-22T06:12:08;9.90;57.50
43991;DHT22;29654;50.784;20.604;2022-12-22T06:17:11;9.90;57.40
43991;DHT22;29654;50.784;20.604;2022-12-22T06:22:15;9.90;57.40
43991;DHT22;29654;50.784;20.604;2022-12-22T06:27:18;9.80;57.40
43991;DHT22;29654;50.784;20.604;2022-12-22T06:32:20;9.80;57.50
43991;DHT22;29654;50.784;20.604;2022-12-22T06:37:24;9.80;57.70
43991;DHT22;29654;50.784;20.604;2022-12-22T06:42:27;9.70;57.70
43991;DHT22;29654;50.784;20.604;2022-12-22T06:47:47;9.70;57.80
43991;DHT22;29654;50.784;20.604;2022-12-22T06:52:51;9.70;57.70
43991;DHT22;29654;50.784;20.604;2022-12-22T06:57:53;9.70;57.70
43991;DHT22;29654;50.784;20.604;2022-12-22T07:02:56;9.70;57.80
43991;DHT22;29654;50.784;20.604;2022-12-22T07:08:00;9.60;57.80
43991;DHT22;29654;50.784;20.604;2022-12-22T07:13:03;9.60;57.90
43991;DHT22;29654;50.784;20.604;2022-12-22T07:18:18;9.50;58.00
43991;DHT22;29654;50.784;20.604;2022-12-22T07:23:23;9.50;58.00
43991;DHT22;29654;50.784;20.604;2022-12-22T07:28:25;9.50;58.10
43991;DHT22;29654;50.784;20.604;2022-12-22T07:33:28;9.50;58.10
43991;DHT22;29654;50.784;20.604;2022-12-22T07:38:34;9.40;58.00
43991;DHT22;29654;50.784;20.604;2022-12-22T07:43:38;9.30;58.20
43991;DHT22;29654;50.784;20.604;2022-12-22T07:48:40;9.30;58.20
43991;DHT22;29654;50.784;20.604;2022-12-22T07:54:04;9.30;58.40
43991;DHT22;29654;50.784;20.604;2022-12-22T07:59:07;9.30;58.70
43991;DHT22;29654;50.784;20.604;2022-12-22T08:04:11;9.30;58.60
43991;DHT22;29654;50.784;20.604;2022-12-22T08:09:16;9.30;58.60
43991;DHT22;29654;50.784;20.604;2022-12-22T08:14:21;9.40;58.80
43991;DHT22;29654;50.784;20.604;2022-12-22T08:19:23;9.40;58.90
43991;DHT22;29654;50.784;20.604;2022-12-22T08:24:28;9.50;59.00
43991;DHT22;29654;50.784;20.604;2022-12-22T08:29:34;9.60;59.00
43991;DHT22;29654;50.784;20.604;2022-12-22T08:34:40;9.70;59.00
43991;DHT22;29654;50.784;20.604;2022-12-22T08:39:51;9.70;58.90
43991;DHT22;29654;50.784;20.604;2022-12-22T08:44:56;9.80;58.80
43991;DHT22;29654;50.784;20.604;2022-12-22T08:49:58;9.80;58.60
43991;DHT22;29654;50.784;20.604;2022-12-22T08:55:03;9.80;58.70
43991;DHT22;29654;50.784;20.604;2022-12-22T09:00:07;9.80;58.60
43991;DHT22;29654;50.784;20.604;2022-12-22T09:05:12;9.80;58.70
43991;DHT22;29654;50.784;20.604;2022-12-22T09:10:17;9.90;58.60
43991;DHT22;29654;50.784;20.604;2022-12-22T09:15:19;9.90;58.60
43991;DHT22;29654;50.784;20.604;2022-12-22T09:20:22;9.80;58.60
43991;DHT22;29654;50.784;20.604;2022-12-22T09:25:26;9.80;58.70
43991;DHT22;29654;50.784;20.604;2022-12-22T09:30:28;9.80;58.80
43991;DHT22;29654;50.784;20.604;2022-12-22T09:35:31;9.90;58.90
43991;DHT22;29654;50.784;20.604;2022-12-22T09:40:35;9.90;58.90
43991;DHT22;29654;50.784;20.604;2022-12-22T09:45:38;10.00;59.00
43991;DHT22;29654;50.784;20.604;2022-12-22T09:50:41;10.10;59.00
43991;DHT22;29654;50.784;20.604;2022-12-22T09:55:47;10.20;59.00
43991;DHT22;29654;50.784;20.604;2022-12-22T10:00:52;10.30;59.20
43991;DHT22;29654;50.784;20.604;2022-12-22T10:06:07;10.40;59.20
43991;DHT22;29654;50.784;20.604;2022-12-22T10:11:16;10.50;59.20
43991;DHT22;29654;50.784;20.604;2022-12-22T10:16:22;10.70;59.20
43991;DHT22;29654;50.784;20.604;2022-12-22T10:21:26;10.80;59.10
43991;DHT22;29654;50.784;20.604;2022-12-22T10:26:32;10.90;58.80
43991;DHT22;29654;50.784;20.604;2022-12-22T10:31:36;11.00;58.80
43991;DHT22;29654;50.784;20.604;2022-12-22T10:36:40;11.00;58.60
43991;DHT22;29654;50.784;20.604;2022-12-22T10:41:48;11.00;58.50
43991;DHT22;29654;50.784;20.604;2022-12-22T10:46:52;11.00;58.40
43991;DHT22;29654;50.784;20.604;2022-12-22T10:51:57;11.10;58.30
43991;DHT22;29654;50.784;20.604;2022-12-22T10:57:27;11.10;58.30
43991;DHT22;29654;50.784;20.604;2022-12-22T11:02:35;11.10;58.30
43991;DHT22;29654;50.784;20.604;2022-12-22T11:07:41;11.00;58.30
43991;DHT22;29654;50.784;20.604;2022-12-22T11:13:11;11.00;58.40
43991;DHT22;29654;50.784;20.604;2022-12-22T11:18:53;11.10;58.70
43991;DHT22;29654;50.784;20.604;2022-12-22T11:24:14;11.10;58.70
43991;DHT22;29654;50.784;20.604;2022-12-22T11:29:53;11.20;58.70
43991;DHT22;29654;50.784;20.604;2022-12-22T11:35:10;11.20;58.70
43991;DHT22;29654;50.784;20.604;2022-12-22T11:40:22;11.40;58.70
43991;DHT22;29654;50.784;20.604;2022-12-22T11:45:41;11.40;58.60
43991;DHT22;29654;50.784;20.604;2022-12-22T11:50:58;11.50;58.50
43991;DHT22;29654;50.784;20.604;2022-12-22T11:56:17;11.60;58.30
43991;DHT22;29654;50.784;20.604;2022-12-22T12:01:38;11.60;58.10
43991;DHT22;29654;50.784;20.604;2022-12-22T12:07:03;11.70;58.00
43991;DHT22;29654;50.784;20.604;2022-12-22T12:12:16;11.80;58.10
43991;DHT22;29654;50.784;20.604;2022-12-22T12:17:31;11.80;58.00
43991;DHT22;29654;50.784;20.604;2022-12-22T12:22:47;11.80;57.90
43991;DHT22;29654;50.784;20.604;2022-12-22T12:28:11;11.90;57.80
43991;DHT22;29654;50.784;20.604;2022-12-22T12:33:28;11.90;57.50
43991;DHT22;29654;50.784;20.604;2022-12-22T12:38:43;11.80;57.50
43991;DHT22;29654;50.784;20.604;2022-12-22T12:43:53;11.80;57.60
43991;DHT22;29654;50.784;20.604;2022-12-22T12:48:57;11.70;57.60
43991;DHT22;29654;50.784;20.604;2022-12-22T12:59:46;11.70;57.50
43991;DHT22;29654;50.784;20.604;2022-12-22T13:05:13;11.70;57.60
43991;DHT22;29654;50.784;20.604;2022-12-22T13:10:38;11.70;57.70
43991;DHT22;29654;50.784;20.604;2022-12-22T13:15:42;11.70;57.70
43991;DHT22;29654;50.784;20.604;2022-12-22T13:20:53;11.70;57.70
43991;DHT22;29654;50.784;20.604;2022-12-22T13:25:58;11.80;57.80
43991;DHT22;29654;50.784;20.604;2022-12-22T13:31:04;11.80;57.70
43991;DHT22;29654;50.784;20.604;2022-12-22T13:36:18;11.80;57.50
43991;DHT22;29654;50.784;20.604;2022-12-22T13:41:22;11.80;57.40
43991;DHT22;29654;50.784;20.604;2022-12-22T13:46:26;11.70;57.40
43991;DHT22;29654;50.784;20.604;2022-12-22T13:51:34;11.70;57.30
43991;DHT22;29654;50.784;20.604;2022-12-22T13:56:40;11.60;57.20
43991;DHT22;29654;50.784;20.604;2022-12-22T14:01:48;11.60;57.30
43991;DHT22;29654;50.784;20.604;2022-12-22T14:06:52;11.50;57.20
43991;DHT22;29654;50.784;20.604;2022-12-22T14:12:04;11.40;57.30
43991;DHT22;29654;50.784;20.604;2022-12-22T14:17:20;11.30;57.40
43991;DHT22;29654;50.784;20.604;2022-12-22T14:22:27;11.30;57.50
43991;DHT22;29654;50.784;20.604;2022-12-22T14:27:37;11.20;57.50
43991;DHT22;29654;50.784;20.604;2022-12-22T14:32:43;11.20;57.50
43991;DHT22;29654;50.784;20.604;2022-12-22T14:37:50;11.20;57.50
43991;DHT22;29654;50.784;20.604;2022-12-22T14:42:54;11.10;57.50
43991;DHT22;29654;50.784;20.604;2022-12-22T14:47:58;11.10;58.00
43991;DHT22;29654;50.784;20.604;2022-12-22T14:53:03;11.00;57.50
43991;DHT22;29654;50.784;20.604;2022-12-22T14:58:11;11.00;57.50
43991;DHT22;29654;50.784;20.604;2022-12-22T15:03:29;11.00;57.70
43991;DHT22;29654;50.784;20.604;2022-12-22T15:08:38;10.90;57.80
43991;DHT22;29654;50.784;20.604;2022-12-22T15:13:42;10.90;57.70
43991;DHT22;29654;50.784;20.604;2022-12-22T15:18:46;10.90;57.80
43991;DHT22;29654;50.784;20.604;2022-12-22T15:23:51;10.90;57.70
43991;DHT22;29654;50.784;20.604;2022-12-22T15:28:54;10.90;57.80
43991;DHT22;29654;50.784;20.604;2022-12-22T15:34:02;10.90;57.80
43991;DHT22;29654;50.784;20.604;2022-12-22T15:39:16;10.90;57.80
43991;DHT22;29654;50.784;20.604;2022-12-22T15:44:21;10.90;57.80
43991;DHT22;29654;50.784;20.604;2022-12-22T15:49:27;10.80;57.80
43991;DHT22;29654;50.784;20.604;2022-12-22T15:54:36;10.80;57.90
43991;DHT22;29654;50.784;20.604;2022-12-22T15:59:41;10.80;57.90
43991;DHT22;29654;50.784;20.604;2022-12-22T16:04:46;10.80;57.90
43991;DHT22;29654;50.784;20.604;2022-12-22T16:09:51;10.80;57.90
43991;DHT22;29654;50.784;20.604;2022-12-22T16:14:56;10.80;57.80
43991;DHT22;29654;50.784;20.604;2022-12-22T16:20:02;10.80;57.80
43991;DHT22;29654;50.784;20.604;2022-12-22T16:25:12;10.70;57.70
43991;DHT22;29654;50.784;20.604;2022-12-22T16:30:19;10.70;57.80
43991;DHT22;29654;50.784;20.604;2022-12-22T16:35:23;10.70;58.00
43991;DHT22;29654;50.784;20.604;2022-12-22T16:40:30;10.60;58.00
43991;DHT22;29654;50.784;20.604;2022-12-22T16:45:35;10.60;58.10
43991;DHT22;29654;50.784;20.604;2022-12-22T16:50:38;10.70;58.10
43991;DHT22;29654;50.784;20.604;2022-12-22T16:55:43;10.70;58.00
43991;DHT22;29654;50.784;20.604;2022-12-22T17:00:47;10.70;57.90
43991;DHT22;29654;50.784;20.604;2022-12-22T17:05:53;10.70;57.90
43991;DHT22;29654;50.784;20.604;2022-12-22T17:11:02;10.70;57.90
43991;DHT22;29654;50.784;20.604;2022-12-22T17:16:13;10.70;57.90
43991;DHT22;29654;50.784;20.604;2022-12-22T17:21:20;10.70;57.90
43991;DHT22;29654;50.784;20.604;2022-12-22T17:26:24;10.70;57.80
43991;DHT22;29654;50.784;20.604;2022-12-22T17:31:27;10.70;57.90
43991;DHT22;29654;50.784;20.604;2022-12-22T17:36:32;10.70;58.20
43991;DHT22;29654;50.784;20.604;2022-12-22T17:41:37;10.70;57.60
43991;DHT22;29654;50.784;20.604;2022-12-22T17:46:40;10.60;57.60
43991;DHT22;29654;50.784;20.604;2022-12-22T17:51:43;10.60;57.80
43991;DHT22;29654;50.784;20.604;2022-12-22T17:56:47;10.60;57.80
43991;DHT22;29654;50.784;20.604;2022-12-22T18:01:49;10.70;57.80
43991;DHT22;29654;50.784;20.604;2022-12-22T18:06:52;10.60;57.90
43991;DHT22;29654;50.784;20.604;2022-12-22T18:11:57;10.70;57.90
43991;DHT22;29654;50.784;20.604;2022-12-22T18:16:59;10.70;58.00
43991;DHT22;29654;50.784;20.604;2022-12-22T18:22:02;10.70;58.00
43991;DHT22;29654;50.784;20.604;2022-12-22T18:27:10;10.70;57.90
43991;DHT22;29654;50.784;20.604;2022-12-22T18:32:13;10.80;57.90
43991;DHT22;29654;50.784;20.604;2022-12-22T18:37:17;10.80;57.80
43991;DHT22;29654;50.784;20.604;2022-12-22T18:42:22;10.80;57.80
43991;DHT22;29654;50.784;20.604;2022-12-22T18:47:25;10.80;57.80
43991;DHT22;29654;50.784;20.604;2022-12-22T18:52:28;10.80;57.70
43991;DHT22;29654;50.784;20.604;2022-12-22T18:57:33;10.80;57.70
43991;DHT22;29654;50.784;20.604;2022-12-22T19:02:37;10.80;57.80
43991;DHT22;29654;50.784;20.604;2022-12-22T19:07:40;10.80;57.80
43991;DHT22;29654;50.784;20.604;2022-12-22T19:12:47;10.80;57.70
43991;DHT22;29654;50.784;20.604;2022-12-22T19:17:51;10.80;57.80
43991;DHT22;29654;50.784;20.604;2022-12-22T19:22:55;10.90;57.80
43991;DHT22;29654;50.784;20.604;2022-12-22T19:28:03;10.90;57.80
43991;DHT22;29654;50.784;20.604;2022-12-22T19:33:16;10.90;57.80
43991;DHT22;29654;50.784;20.604;2022-12-22T19:38:21;10.90;58.00
43991;DHT22;29654;50.784;20.604;2022-12-22T19:43:27;10.90;57.90
43991;DHT22;29654;50.784;20.604;2022-12-22T19:48:30;10.90;57.80
43991;DHT22;29654;50.784;20.604;2022-12-22T19:53:33;11.00;57.80
43991;DHT22;29654;50.784;20.604;2022-12-22T19:58:39;11.00;57.70
43991;DHT22;29654;50.784;20.604;2022-12-22T20:03:42;11.00;57.70
43991;DHT22;29654;50.784;20.604;2022-12-22T20:08:46;11.00;57.60
43991;DHT22;29654;50.784;20.604;2022-12-22T20:13:50;11.00;57.40
43991;DHT22;29654;50.784;20.604;2022-12-22T20:18:53;11.00;57.30
43991;DHT22;29654;50.784;20.604;2022-12-22T20:23:57;10.90;57.20
43991;DHT22;29654;50.784;20.604;2022-12-22T20:29:03;10.90;57.20
43991;DHT22;29654;50.784;20.604;2022-12-22T20:34:06;10.90;57.20
43991;DHT22;29654;50.784;20.604;2022-12-22T20:39:12;10.80;57.20
43991;DHT22;29654;50.784;20.604;2022-12-22T20:44:21;10.80;57.20
43991;DHT22;29654;50.784;20.604;2022-12-22T20:49:29;10.80;57.30
43991;DHT22;29654;50.784;20.604;2022-12-22T20:54:35;10.70;57.30
43991;DHT22;29654;50.784;20.604;2022-12-22T20:59:42;10.70;57.30
43991;DHT22;29654;50.784;20.604;2022-12-22T21:04:46;10.70;57.30
43991;DHT22;29654;50.784;20.604;2022-12-22T21:09:48;10.60;57.30
43991;DHT22;29654;50.784;20.604;2022-12-22T21:14:52;10.60;57.30
43991;DHT22;29654;50.784;20.604;2022-12-22T21:19:56;10.60;57.30
43991;DHT22;29654;50.784;20.604;2022-12-22T21:24:59;10.60;57.40
43991;DHT22;29654;50.784;20.604;2022-12-22T21:30:17;10.60;57.60
43991;DHT22;29654;50.784;20.604;2022-12-22T21:35:24;10.60;57.80
43991;DHT22;29654;50.784;20.604;2022-12-22T21:40:31;10.70;58.10
43991;DHT22;29654;50.784;20.604;2022-12-22T21:45:37;10.70;58.20
43991;DHT22;29654;50.784;20.604;2022-12-22T21:50:40;10.80;58.30
43991;DHT22;29654;50.784;20.604;2022-12-22T21:55:44;10.90;58.30
43991;DHT22;29654;50.784;20.604;2022-12-22T22:00:48;11.00;58.80
43991;DHT22;29654;50.784;20.604;2022-12-22T22:05:51;11.10;58.10
43991;DHT22;29654;50.784;20.604;2022-12-22T22:10:54;11.20;58.00
43991;DHT22;29654;50.784;20.604;2022-12-22T22:15:58;11.20;58.00
43991;DHT22;29654;50.784;20.604;2022-12-22T22:21:00;11.30;58.00
43991;DHT22;29654;50.784;20.604;2022-12-22T22:26:03;11.30;57.90
43991;DHT22;29654;50.784;20.604;2022-12-22T22:31:09;11.40;58.00
43991;DHT22;29654;50.784;20.604;2022-12-22T22:36:12;11.40;58.00
43991;DHT22;29654;50.784;20.604;2022-12-22T22:41:15;11.40;57.80
43991;DHT22;29654;50.784;20.604;2022-12-22T22:46:19;11.40;57.70
43991;DHT22;29654;50.784;20.604;2022-12-22T22:51:22;11.50;57.80
43991;DHT22;29654;50.784;20.604;2022-12-22T22:56:24;11.50;57.80
43991;DHT22;29654;50.784;20.604;2022-12-22T23:01:28;11.50;57.80
43991;DHT22;29654;50.784;20.604;2022-12-22T23:06:31;11.60;57.70
43991;DHT22;29654;50.784;20.604;2022-12-22T23:11:34;11.60;57.70
43991;DHT22;29654;50.784;20.604;2022-12-22T23:16:38;11.60;57.70
43991;DHT22;29654;50.784;20.604;2022-12-22T23:21:41;11.60;57.70
43991;DHT22;29654;50.784;20.604;2022-12-22T23:26:45;11.60;57.60
43991;DHT22;29654;50.784;20.604;2022-12-22T23:31:49;11.70;57.70
43991;DHT22;29654;50.784;20.604;2022-12-22T23:36:52;11.70;57.60
43991;DHT22;29654;50.784;20.604;2022-12-22T23:41:55;11.70;57.60
43991;DHT22;29654;50.784;20.604;2022-12-22T23:46:59;11.70;57.60
43991;DHT22;29654;50.784;20.604;2022-12-22T23:52:02;11.70;57.60
43991;DHT22;29654;50.784;20.604;2022-12-22T23:57:04;11.70;57.60
